Time;durP1;ratioP1;P1;durP2;ratioP2;P2;SDS_P1;SDS_P2;PMS_P1;PMS_P2;Temp;Humidity;BMP_temperature;BMP_pressure;BME280_temperature;BME280_humidity;BME280_pressure;Samples;Min_cycle;Max_cycle;Signal;HPM_P1;HPM_P2
2021/04/22 00:00:03;;;;;;;2.83;2.07;;;8.50;68.60;;;;;;4868664;29;20199;-84
2021/04/22 00:02:28;;;;;;;8.20;2.65;;;8.50;66.90;;;;;;4881738;29;20435;-84
2021/04/22 00:04:54;;;;;;;7.17;2.10;;;8.40;67.40;;;;;;4883876;29;20175;-84
2021/04/22 00:07:20;;;;;;;8.63;1.90;;;8.50;65.50;;;;;;4867271;29;20187;-83
2021/04/22 00:09:48;;;;;;;2.50;1.83;;;8.60;65.30;;;;;;4866584;29;20218;-82
2021/04/22 00:12:16;;;;;;;4.68;2.50;;;8.60;68.30;;;;;;4877388;29;20450;-83
2021/04/22 00:14:41;;;;;;;6.05;2.45;;;8.60;66.30;;;;;;4881913;29;20643;-83
2021/04/22 00:17:08;;;;;;;9.47;2.57;;;8.40;68.20;;;;;;4879470;29;20207;-83
2021/04/22 00:19:35;;;;;;;5.07;2.35;;;8.30;65.50;;;;;;4867631;29;20294;-83
2021/04/22 00:22:00;;;;;;;6.10;2.60;;;8.30;65.30;;;;;;4885417;29;20197;-83
2021/04/22 00:24:26;;;;;;;10.60;2.40;;;8.10;65.70;;;;;;4885358;29;20254;-84
2021/04/22 00:26:52;;;;;;;5.13;2.07;;;8.00;67.70;;;;;;4868542;29;20179;-82
2021/04/22 00:29:17;;;;;;;6.37;2.80;;;8.10;66.80;;;;;;4882867;29;20186;-83
2021/04/22 00:31:43;;;;;;;2.27;1.77;;;8.10;66.30;;;;;;4886672;29;20656;-83
2021/04/22 00:34:08;;;;;;;3.00;1.73;;;8.10;67.00;;;;;;4886578;29;20837;-84
2021/04/22 00:36:34;;;;;;;5.67;1.90;;;8.20;64.80;;;;;;4869816;29;20168;-84
2021/04/22 00:39:00;;;;;;;11.20;2.20;;;8.10;66.50;;;;;;4887054;29;20207;-83
2021/04/22 00:41:25;;;;;;;5.93;2.37;;;8.40;66.10;;;;;;4884510;29;20199;-83
2021/04/22 00:43:53;;;;;;;3.50;2.20;;;8.70;64.80;;;;;;4866126;29;20202;-83
2021/04/22 00:46:19;;;;;;;6.10;2.83;;;8.80;66.40;;;;;;4885751;29;20250;-83
2021/04/22 00:48:47;;;;;;;9.90;2.43;;;8.90;65.10;;;;;;4888231;29;20206;-85
2021/04/22 00:51:13;;;;;;;8.40;2.25;;;8.80;63.50;;;;;;4888014;29;20230;-82
2021/04/22 00:53:40;;;;;;;4.07;2.08;;;8.90;62.80;;;;;;4890328;29;20179;-83
2021/04/22 00:56:08;;;;;;;6.90;3.03;;;8.80;64.60;;;;;;4886832;29;20179;-83
2021/04/22 00:58:36;;;;;;;10.05;2.00;;;8.80;64.50;;;;;;4869788;29;20856;-83
2021/04/22 01:01:05;;;;;;;10.98;2.10;;;8.80;63.30;;;;;;4869078;29;20211;-83
2021/04/22 01:03:31;;;;;;;6.47;2.50;;;8.70;62.80;;;;;;4873682;29;20216;-83
2021/04/22 01:06:02;;;;;;;12.03;2.80;;;8.60;64.40;;;;;;4889899;29;20179;-82
2021/04/22 01:08:29;;;;;;;6.90;2.55;;;8.70;64.00;;;;;;4857877;29;20455;-83
2021/04/22 01:10:55;;;;;;;9.10;2.55;;;8.60;64.60;;;;;;4870892;29;20225;-83
2021/04/22 01:13:21;;;;;;;6.97;2.20;;;8.70;65.10;;;;;;4885531;29;20186;-83
2021/04/22 01:15:47;;;;;;;2.70;1.83;;;8.70;63.40;;;;;;4888615;29;20659;-83
2021/04/22 01:18:19;;;;;;;6.07;2.00;;;8.70;65.30;;;;;;4887153;29;20270;-82
2021/04/22 01:20:47;;;;;;;3.72;2.30;;;8.90;65.00;;;;;;4889625;29;20445;-83
2021/04/22 01:23:14;;;;;;;6.00;2.72;;;8.70;65.10;;;;;;4877764;29;20729;-83
2021/04/22 01:25:44;;;;;;;4.72;1.83;;;8.40;65.60;;;;;;4851868;29;20180;-84
2021/04/22 01:28:13;;;;;;;5.43;2.30;;;8.70;66.50;;;;;;4835703;29;20191;-83
2021/04/22 01:30:40;;;;;;;6.00;2.25;;;8.70;67.00;;;;;;4852734;29;20267;-83
2021/04/22 01:33:07;;;;;;;6.40;2.72;;;8.50;69.00;;;;;;4868295;29;20548;-84
2021/04/22 01:35:35;;;;;;;11.25;2.58;;;8.60;69.30;;;;;;4879543;29;20187;-82
2021/04/22 01:38:01;;;;;;;4.72;2.55;;;8.60;67.40;;;;;;4862831;29;20203;-83
2021/04/22 01:40:28;;;;;;;5.18;2.30;;;8.30;68.50;;;;;;4853262;29;20208;-83
2021/04/22 01:42:54;;;;;;;3.88;2.08;;;8.50;68.40;;;;;;4852332;29;20194;-83
2021/04/22 01:45:20;;;;;;;4.38;2.10;;;8.60;71.20;;;;;;4867564;29;20227;-83
2021/04/22 01:48:01;;;;;;;7.50;2.87;;;8.60;68.30;;;;;;4869842;29;20203;-82
2021/04/22 01:50:29;;;;;;;4.15;2.10;;;8.40;69.00;;;;;;4867735;29;20588;-83
2021/04/22 01:52:55;;;;;;;4.25;2.53;;;8.50;68.80;;;;;;4880401;29;20194;-84
2021/04/22 01:55:28;;;;;;;6.63;2.80;;;8.40;69.80;;;;;;4869247;29;20179;-83
2021/04/22 01:57:54;;;;;;;6.28;3.38;;;8.40;70.40;;;;;;4876144;29;20215;-82
2021/04/22 02:00:27;;;;;;;4.40;3.00;;;8.60;70.50;;;;;;4867198;29;20203;-83
2021/04/22 02:02:53;;;;;;;6.90;2.70;;;8.40;70.80;;;;;;4876659;29;20454;-82
2021/04/22 02:05:20;;;;;;;7.43;2.53;;;8.20;71.80;;;;;;4884741;29;20171;-83
2021/04/22 02:07:46;;;;;;;4.50;2.33;;;8.30;73.20;;;;;;4875563;29;20244;-83
2021/04/22 02:10:11;;;;;;;7.50;2.20;;;8.40;72.50;;;;;;4866158;29;20195;-83
2021/04/22 02:12:40;;;;;;;10.50;2.90;;;8.00;72.70;;;;;;4869724;29;20663;-82
2021/04/22 02:15:08;;;;;;;4.90;2.20;;;8.10;74.00;;;;;;4867420;29;20512;-84
2021/04/22 02:17:33;;;;;;;7.07;2.33;;;8.30;74.20;;;;;;4883123;29;20667;-83
2021/04/22 02:19:59;;;;;;;6.73;2.47;;;8.40;73.40;;;;;;4881197;29;20206;-84
2021/04/22 02:22:24;;;;;;;7.50;2.10;;;8.40;75.10;;;;;;4866652;29;20194;-85
2021/04/22 02:24:50;;;;;;;4.43;2.37;;;8.40;72.90;;;;;;4900776;29;20175;-84
2021/04/22 02:27:16;;;;;;;5.55;2.40;;;8.30;74.00;;;;;;4878222;29;20217;-83
2021/04/22 02:29:42;;;;;;;5.27;2.20;;;8.20;74.10;;;;;;4883355;29;20699;-84
2021/04/22 02:32:07;;;;;;;6.27;2.80;;;8.10;74.00;;;;;;4883181;29;20223;-84
2021/04/22 02:34:33;;;;;;;7.30;2.33;;;8.20;75.50;;;;;;4866961;29;20544;-84
2021/04/22 02:36:59;;;;;;;11.38;3.40;;;8.00;75.70;;;;;;4865886;29;20639;-84
2021/04/22 02:39:25;;;;;;;9.13;2.90;;;8.00;75.40;;;;;;4866055;29;20345;-85
2021/04/22 02:41:51;;;;;;;6.37;2.70;;;7.90;77.30;;;;;;4867458;29;20560;-83
2021/04/22 02:44:17;;;;;;;5.18;2.75;;;8.00;75.80;;;;;;4882123;29;20602;-84
2021/04/22 02:46:42;;;;;;;5.47;2.40;;;7.80;76.10;;;;;;4884053;29;20262;-83
2021/04/22 02:49:08;;;;;;;4.10;2.17;;;7.90;78.00;;;;;;4881395;29;20221;-83
2021/04/22 02:51:33;;;;;;;3.63;1.80;;;8.30;76.20;;;;;;4865706;29;20195;-84
2021/04/22 02:53:59;;;;;;;5.33;2.60;;;8.50;76.90;;;;;;4867115;29;20191;-84
2021/04/22 02:56:24;;;;;;;9.23;2.80;;;8.50;78.80;;;;;;4867309;29;20255;-83
2021/04/22 02:58:50;;;;;;;4.47;1.97;;;8.50;76.00;;;;;;4851924;29;20207;-84
2021/04/22 03:01:15;;;;;;;8.00;2.47;;;8.60;77.20;;;;;;4867057;29;20195;-83
2021/04/22 03:03:43;;;;;;;9.63;2.50;;;8.60;75.30;;;;;;4869044;29;20183;-85
2021/04/22 03:06:09;;;;;;;15.18;2.55;;;8.20;76.50;;;;;;4867945;29;20179;-83
2021/04/22 03:08:37;;;;;;;5.67;2.67;;;8.10;76.10;;;;;;4872788;29;20187;-83
2021/04/22 03:11:03;;;;;;;5.10;2.42;;;8.40;77.90;;;;;;4866315;29;20211;-83
2021/04/22 03:13:28;;;;;;;11.83;2.57;;;8.20;76.40;;;;;;4874797;29;20179;-84
2021/04/22 03:15:54;;;;;;;10.50;3.00;;;8.10;78.00;;;;;;4867963;29;20277;-84
2021/04/22 03:18:20;;;;;;;12.70;2.80;;;7.90;78.20;;;;;;4868169;29;20217;-84
2021/04/22 03:20:46;;;;;;;3.80;1.73;;;7.70;79.60;;;;;;4884795;29;20438;-84
2021/04/22 03:23:11;;;;;;;4.90;2.70;;;7.80;80.00;;;;;;4883683;29;20220;-84
2021/04/22 03:25:37;;;;;;;4.70;2.33;;;7.80;80.50;;;;;;4886133;29;20178;-84
2021/04/22 03:28:03;;;;;;;6.30;2.00;;;7.90;82.30;;;;;;4853783;29;20187;-83
2021/04/22 03:30:31;;;;;;;9.40;2.83;;;8.00;80.70;;;;;;4885509;29;20601;-84
2021/04/22 03:32:56;;;;;;;4.97;1.90;;;8.30;81.20;;;;;;4887387;29;20185;-83
2021/04/22 03:35:23;;;;;;;12.38;2.35;;;8.00;82.90;;;;;;4885974;29;20174;-85
2021/04/22 03:37:49;;;;;;;18.02;3.22;;;8.20;83.10;;;;;;4870380;29;20218;-83
2021/04/22 03:40:16;;;;;;;4.45;2.15;;;8.20;81.40;;;;;;4887553;29;20231;-83
2021/04/22 03:42:42;;;;;;;6.38;2.05;;;8.10;85.20;;;;;;4871652;29;20183;-84
2021/04/22 03:45:10;;;;;;;14.13;2.50;;;7.90;83.00;;;;;;4877777;29;20194;-84
2021/04/22 03:47:35;;;;;;;7.20;2.70;;;8.00;83.70;;;;;;4872528;29;20424;-83
2021/04/22 03:50:06;;;;;;;9.03;2.57;;;8.10;85.20;;;;;;4869026;29;20199;-82
2021/04/22 03:52:34;;;;;;;3.85;2.25;;;8.10;83.50;;;;;;4869241;29;20456;-82
2021/04/22 03:54:59;;;;;;;10.95;3.10;;;8.00;84.00;;;;;;4868427;29;20190;-82
2021/04/22 03:57:25;;;;;;;9.43;2.20;;;7.70;86.40;;;;;;4888711;29;20288;-84
2021/04/22 03:59:51;;;;;;;3.77;2.40;;;7.60;86.10;;;;;;4872901;29;20203;-82
2021/04/22 04:02:18;;;;;;;10.77;3.47;;;7.40;87.20;;;;;;4867446;29;20545;-83
2021/04/22 04:04:44;;;;;;;11.50;3.60;;;7.60;87.30;;;;;;4866491;29;20168;-84
2021/04/22 04:07:15;;;;;;;5.57;2.60;;;7.80;88.20;;;;;;4867397;29;20202;-84
2021/04/22 04:09:40;;;;;;;10.10;2.25;;;7.90;89.00;;;;;;4852060;29;20207;-83
2021/04/22 04:12:07;;;;;;;5.40;2.57;;;7.80;88.20;;;;;;4865861;29;20179;-83
2021/04/22 04:14:34;;;;;;;10.35;2.80;;;7.90;86.60;;;;;;4868946;29;20187;-85
2021/04/22 04:17:01;;;;;;;7.40;2.20;;;7.60;87.50;;;;;;4869677;29;20172;-84
2021/04/22 04:25:37;;;;;;;;;;;;;;;;;;;;;
2021/04/22 04:28:50;;;;;;;;;;;;;;;;;;;;;
2021/04/22 04:34:40;;;;;;;9.98;2.80;;;8.00;88.00;;;;;;4825004;29;20311;-83
2021/04/22 04:38:17;;;;;;;4.93;2.58;;;8.30;87.00;;;;;;4817558;29;20185;-83
2021/04/22 04:41:08;;;;;;;7.07;2.35;;;7.90;86.60;;;;;;4904328;29;20241;-83
2021/04/22 04:43:40;;;;;;;;;;;;;;;;;;;;;
2021/04/22 04:46:29;;;;;;;;;;;;;;;;;;;;;
2021/04/22 04:49:20;;;;;;;5.78;2.70;;;7.80;86.80;;;;;;4893015;29;20227;-84
2021/04/22 04:52:02;;;;;;;3.42;2.38;;;7.90;87.00;;;;;;4869386;29;20191;-84
2021/04/22 04:58:50;;;;;;;5.18;2.50;;;7.70;88.10;;;;;;4829960;29;20231;-83
2021/04/22 05:01:39;;;;;;;8.05;2.25;;;7.70;88.20;;;;;;4829171;29;20291;-83
2021/04/22 05:04:14;;;;;;;9.43;2.47;;;7.50;88.10;;;;;;4867804;29;20613;-82
2021/04/22 05:06:40;;;;;;;4.07;2.10;;;7.50;89.30;;;;;;4905856;29;20186;-85
2021/04/22 05:09:11;;;;;;;11.40;3.17;;;7.70;89.30;;;;;;4906889;29;20178;-82
2021/04/22 05:11:37;;;;;;;5.25;2.25;;;7.90;90.00;;;;;;4900831;29;20179;-82
2021/04/22 05:14:03;;;;;;;9.63;2.87;;;7.90;89.50;;;;;;4904553;29;20193;-82
2021/04/22 05:16:33;;;;;;;8.03;2.77;;;8.00;88.60;;;;;;4890843;29;20254;-82
2021/04/22 05:19:29;;;;;;;3.80;2.00;;;7.90;87.90;;;;;;4916732;29;20277;-82
2021/04/22 05:28:02;;;;;;;;;;;;;;;;;;;;;
2021/04/22 05:30:41;;;;;;;;;;;;;;;;;;;;;
2021/04/22 05:33:08;;;;;;;9.20;3.08;;;9.50;99.90;;;;;;4904919;29;20212;-85
2021/04/22 05:35:36;;;;;;;7.80;2.63;;;9.00;99.90;;;;;;4896369;29;20183;-85
2021/04/22 05:38:03;;;;;;;6.57;2.20;;;9.70;99.90;;;;;;4896847;29;20202;-85
2021/04/22 05:40:29;;;;;;;5.25;2.60;;;9.70;99.90;;;;;;4911053;29;20261;-86
2021/04/22 05:42:59;;;;;;;9.10;2.57;;;9.90;99.90;;;;;;4885605;29;20206;-84
2021/04/22 05:45:41;;;;;;;7.00;2.78;;;10.00;99.90;;;;;;4898624;29;20451;-85
2021/04/22 05:48:07;;;;;;;6.15;2.47;;;9.30;99.90;;;;;;4909229;29;20229;-82
2021/04/22 05:50:34;;;;;;;7.28;2.67;;;8.90;99.90;;;;;;4893037;29;20483;-81
2021/04/22 05:52:59;;;;;;;9.05;2.75;;;8.40;99.90;;;;;;4895159;29;20166;-82
2021/04/22 05:55:25;;;;;;;5.00;2.83;;;8.20;99.90;;;;;;4913713;29;20189;-82
2021/04/22 05:57:55;;;;;;;6.03;2.50;;;8.10;99.90;;;;;;4904975;29;20212;-83
2021/04/22 06:00:21;;;;;;;10.45;3.00;;;7.90;99.90;;;;;;4903626;29;20442;-83
2021/04/22 06:02:46;;;;;;;8.10;2.38;;;8.20;99.90;;;;;;4887863;29;20182;-82
2021/04/22 06:05:59;;;;;;;7.20;2.90;;;8.10;99.90;;;;;;4889339;29;20191;-85
2021/04/22 06:08:41;;;;;;;;;;;;;;;;;;;;;
2021/04/22 06:11:07;;;;;;;6.82;2.80;;;8.50;99.90;;;;;;4892996;29;20275;-83
2021/04/22 06:13:32;;;;;;;9.00;3.20;;;8.80;99.90;;;;;;4878606;29;20210;-84
2021/04/22 06:15:58;;;;;;;7.30;2.40;;;8.80;99.90;;;;;;4895651;29;20203;-85
2021/04/22 06:18:24;;;;;;;5.10;2.50;;;9.10;99.90;;;;;;4885588;29;20278;-85
2021/04/22 06:20:55;;;;;;;7.43;2.57;;;8.90;99.90;;;;;;4895959;29;20198;-83
2021/04/22 06:23:22;;;;;;;7.30;3.35;;;8.70;99.90;;;;;;4877228;29;20209;-83
2021/04/22 06:25:48;;;;;;;5.60;2.58;;;8.40;99.90;;;;;;4907528;29;20182;-84
2021/04/22 06:28:15;;;;;;;3.47;2.10;;;8.50;99.90;;;;;;4902293;29;20185;-82
2021/04/22 06:30:40;;;;;;;11.32;2.10;;;8.70;99.90;;;;;;4894627;29;20181;-88
2021/04/22 06:33:06;;;;;;;13.03;2.67;;;8.50;99.90;;;;;;4914138;29;20198;-83
2021/04/22 06:35:32;;;;;;;5.17;2.40;;;8.70;99.90;;;;;;4905522;29;20266;-83
2021/04/22 06:37:57;;;;;;;5.63;1.57;;;8.70;99.90;;;;;;4906494;29;20213;-83
2021/04/22 06:40:24;;;;;;;4.30;2.23;;;9.00;99.90;;;;;;4898813;29;20190;-85
2021/04/22 06:42:50;;;;;;;6.03;2.25;;;8.70;99.90;;;;;;4900371;29;20251;-84
2021/04/22 06:45:16;;;;;;;3.47;2.03;;;8.50;99.90;;;;;;4907546;29;20186;-85
2021/04/22 06:47:43;;;;;;;6.25;2.67;;;8.60;99.90;;;;;;4905216;29;20414;-84
2021/04/22 06:50:11;;;;;;;5.03;1.95;;;8.90;99.90;;;;;;4905460;29;20190;-84
2021/04/22 06:52:38;;;;;;;3.42;1.80;;;9.00;99.90;;;;;;4918792;29;20170;-84
2021/04/22 06:55:17;;;;;;;2.67;1.60;;;8.90;99.90;;;;;;4917245;29;20162;-86
2021/04/22 06:57:52;;;;;;;7.43;2.92;;;8.70;99.90;;;;;;4894634;29;20201;-84
2021/04/22 07:00:22;;;;;;;5.90;2.08;;;8.70;99.90;;;;;;4921945;29;20199;-84
2021/04/22 07:02:54;;;;;;;4.32;1.90;;;8.50;99.90;;;;;;4891516;29;20178;-85
2021/04/22 07:05:20;;;;;;;9.07;2.72;;;8.90;99.90;;;;;;4884668;29;20649;-83
2021/04/22 07:07:46;;;;;;;2.50;1.60;;;8.70;99.90;;;;;;4904148;29;20174;-83
2021/04/22 07:10:13;;;;;;;2.70;1.60;;;8.60;99.90;;;;;;4904422;29;20454;-83
2021/04/22 07:12:39;;;;;;;2.42;1.60;;;8.70;99.90;;;;;;4904701;29;20210;-83
2021/04/22 07:15:09;;;;;;;10.20;3.27;;;8.90;99.90;;;;;;4907479;29;20182;-83
2021/04/22 07:17:36;;;;;;;6.35;2.25;;;9.20;99.90;;;;;;4888822;29;20212;-84
2021/04/22 07:20:08;;;;;;;7.93;2.97;;;9.50;99.90;;;;;;4905310;29;20190;-81
2021/04/22 07:22:34;;;;;;;5.53;2.13;;;9.10;99.40;;;;;;4877543;29;20205;-85
2021/04/22 07:25:03;;;;;;;7.27;2.67;;;8.90;99.90;;;;;;4902720;29;20545;-85
2021/04/22 07:27:29;;;;;;;6.25;2.88;;;9.20;99.80;;;;;;4909949;29;20797;-84
2021/04/22 07:29:57;;;;;;;5.77;2.40;;;9.60;99.90;;;;;;4899988;29;20212;-85
2021/04/22 07:32:23;;;;;;;6.32;2.80;;;9.80;98.90;;;;;;4901331;29;20194;-83
2021/04/22 07:34:48;;;;;;;5.47;2.90;;;9.70;97.60;;;;;;4886241;29;20192;-84
2021/04/22 07:37:20;;;;;;;4.67;2.13;;;9.80;98.10;;;;;;4887756;29;20183;-83
2021/04/22 07:39:48;;;;;;;7.40;3.00;;;9.20;97.90;;;;;;4882114;29;20690;-84
2021/04/22 07:45:16;;;;;;;6.25;1.75;;;9.10;99.90;;;;;;4900466;29;20178;-85
2021/04/22 07:47:53;;;;;;;9.75;2.30;;;9.40;98.20;;;;;;4888399;29;20190;-85
2021/04/22 07:50:43;;;;;;;16.15;2.78;;;9.30;98.20;;;;;;4893105;29;20201;-85
2021/04/22 07:53:33;;;;;;;18.45;2.88;;;9.20;98.30;;;;;;4895167;29;20185;-85
2021/04/22 07:56:07;;;;;;;14.20;3.50;;;9.00;98.90;;;;;;4914502;29;20215;-84
2021/04/22 07:58:40;;;;;;;7.63;3.30;;;9.20;99.90;;;;;;4897807;29;20213;-83
2021/04/22 08:01:18;;;;;;;;;;;;;;;;;;;;;
2021/04/22 08:03:50;;;;;;;9.05;2.95;;;9.60;97.80;;;;;;4914223;29;20202;-83
2021/04/22 08:06:46;;;;;;;6.18;2.00;;;9.70;97.50;;;;;;4892722;29;20245;-85
2021/04/22 08:09:20;;;;;;;5.35;1.60;;;9.70;96.50;;;;;;4888665;29;20190;-84
2021/04/22 08:11:52;;;;;;;7.80;2.33;;;9.60;96.90;;;;;;4886814;29;20182;-83
2021/04/22 08:14:28;;;;;;;2.58;1.52;;;9.40;97.50;;;;;;4872103;29;20667;-83
2021/04/22 08:17:05;;;;;;;7.72;2.30;;;9.40;97.10;;;;;;4906124;29;20182;-85
2021/04/22 08:19:33;;;;;;;6.95;2.38;;;9.30;97.30;;;;;;4904551;29;20202;-83
2021/04/22 08:22:02;;;;;;;15.88;2.90;;;9.30;97.40;;;;;;4898737;29;20174;-82
2021/04/22 08:24:29;;;;;;;7.63;1.75;;;9.40;97.20;;;;;;4888332;29;20194;-83
2021/04/22 08:26:57;;;;;;;3.28;1.88;;;9.40;97.30;;;;;;4887067;29;20219;-83
2021/04/22 08:29:38;;;;;;;6.15;2.15;;;9.90;97.20;;;;;;4886317;29;20175;-83
2021/04/22 08:32:07;;;;;;;5.80;1.92;;;10.30;97.40;;;;;;4884869;29;20667;-82
2021/04/22 08:34:33;;;;;;;11.73;2.67;;;10.40;94.30;;;;;;4893472;29;20194;-82
2021/04/22 08:37:09;;;;;;;6.60;2.67;;;10.00;94.70;;;;;;4917031;29;20179;-83
2021/04/22 08:39:55;;;;;;;5.88;1.92;;;10.10;94.50;;;;;;4907206;29;20217;-85
2021/04/22 08:45:48;;;;;;;9.70;2.90;;;9.90;94.50;;;;;;4903340;29;20242;-84
2021/04/22 08:48:14;;;;;;;5.53;2.25;;;10.10;94.40;;;;;;4913959;29;20565;-84
2021/04/22 08:50:42;;;;;;;12.20;2.63;;;10.50;92.60;;;;;;4902578;29;20190;-84
2021/04/22 08:53:13;;;;;;;9.57;2.75;;;10.30;92.70;;;;;;4906480;29;20203;-84
2021/04/22 08:55:54;;;;;;;5.20;1.90;;;10.40;92.20;;;;;;4889500;29;20174;-84
2021/04/22 08:58:31;;;;;;;3.63;2.00;;;10.50;92.60;;;;;;4906039;29;20265;-84
2021/04/22 09:04:55;;;;;;;6.22;2.15;;;11.00;91.80;;;;;;4888564;29;20190;-84
2021/04/22 09:07:30;;;;;;;6.80;3.00;;;10.90;90.20;;;;;;4825275;29;20198;-83
2021/04/22 09:10:45;;;;;;;4.47;2.35;;;10.70;90.20;;;;;;4883844;29;20269;-83
2021/04/22 09:13:18;;;;;;;6.30;2.45;;;10.70;89.60;;;;;;4899983;29;20182;-84
2021/04/22 09:15:55;;;;;;;7.00;2.28;;;10.70;89.50;;;;;;4913663;29;20174;-84
2021/04/22 09:18:21;;;;;;;5.55;1.75;;;10.50;90.60;;;;;;4905766;29;20197;-84
2021/04/22 09:20:53;;;;;;;2.47;1.70;;;10.80;92.00;;;;;;4901152;29;20187;-83
2021/04/22 09:23:33;;;;;;;7.70;2.15;;;11.00;91.60;;;;;;4901633;29;20225;-84
2021/04/22 09:26:02;;;;;;;12.75;2.65;;;10.80;90.00;;;;;;4886843;29;20186;-84
2021/04/22 09:28:52;;;;;;;6.70;2.50;;;10.60;90.60;;;;;;4874022;29;20183;-86
2021/04/22 09:34:47;;;;;;;9.52;2.25;;;10.50;91.20;;;;;;4903102;29;20317;-85
2021/04/22 09:40:38;;;;;;;8.70;2.55;;;10.20;90.80;;;;;;5122577;23;20312;-84
2021/04/22 09:44:25;;;;;;;11.70;2.60;;;10.50;91.80;;;;;;4889762;29;20189;-83
2021/04/22 09:51:29;;;;;;;8.23;2.40;;;10.60;91.60;;;;;;4837668;29;20744;-84
2021/04/22 09:54:34;;;;;;;3.50;1.80;;;11.00;89.70;;;;;;4854328;29;20233;-84
2021/04/22 10:01:22;;;;;;;5.50;2.67;;;11.20;86.80;;;;;;4714304;30;20215;-85
2021/04/22 10:08:03;;;;;;;4.43;2.10;;;11.40;86.10;;;;;;4710090;30;20193;-84
2021/04/22 10:23:51;;;;;;;2.75;1.83;;;11.20;77.50;;;;;;3285558;27;20209;-84
2021/04/22 10:26:22;;;;;;;5.45;1.85;;;11.00;78.00;;;;;;4907429;29;20197;-86
2021/04/22 10:29:38;;;;;;;2.75;1.88;;;10.80;76.60;;;;;;4902617;29;20186;-85
2021/04/22 10:36:26;;;;;;;;;;;;;;;;;;;;;
2021/04/22 10:39:56;;;;;;;;;;;;;;;;;;;;;
2021/04/22 12:30:50;;;;;;;3.65;2.30;;;12.80;59.90;;;;;;4925048;23;20257;-82
2021/04/22 12:37:54;;;;;;;3.35;1.52;;;12.20;58.60;;;;;;4934044;29;20253;-85
2021/04/22 12:41:15;;;;;;;;;;;;;;;;;;;;;
2021/04/22 15:30:50;;;;;;;4.95;2.40;;;12.60;57.30;;;;;;4886066;29;20210;-83
2021/04/22 15:33:21;;;;;;;5.10;2.97;;;12.50;56.70;;;;;;4863300;29;20183;-83
2021/04/22 15:35:56;;;;;;;16.17;2.55;;;12.40;58.10;;;;;;4856054;29;20174;-85
2021/04/22 15:38:30;;;;;;;6.00;3.10;;;12.40;58.30;;;;;;4891260;29;20261;-84
2021/04/22 15:41:05;;;;;;;6.25;2.70;;;12.30;58.90;;;;;;4853608;29;20207;-85
2021/04/22 15:43:35;;;;;;;4.72;2.15;;;12.40;58.80;;;;;;4866959;29;20166;-86
2021/04/22 15:46:05;;;;;;;5.55;2.55;;;12.40;59.70;;;;;;4867927;29;20172;-85
2021/04/22 15:48:55;;;;;;;5.57;2.60;;;12.50;59.90;;;;;;4837534;29;20724;-83
2021/04/22 15:51:42;;;;;;;8.82;2.90;;;12.20;58.80;;;;;;4884427;29;20206;-83
2021/04/22 15:54:11;;;;;;;4.00;3.30;;;12.20;60.00;;;;;;4872908;29;20202;-85
2021/04/22 15:56:37;;;;;;;5.38;2.97;;;12.20;59.50;;;;;;4884817;29;20195;-84
2021/04/22 15:59:29;;;;;;;6.60;2.90;;;12.30;58.50;;;;;;4871912;29;20198;-85
2021/04/22 16:06:19;;;;;;;15.07;2.55;;;12.60;57.90;;;;;;4882150;29;20186;-85
2021/04/22 16:09:41;;;;;;;6.38;2.97;;;12.40;57.90;;;;;;4820975;29;20272;-85
2021/04/22 16:12:50;;;;;;;;;;;;;;;;;;;;;
2021/04/22 16:25:45;;;;;;;4.35;3.15;;;11.60;61.70;;;;;;4906329;29;20193;-86
2021/04/22 19:11:23;;;;;;;4.25;2.40;;;10.50;97.10;;;;;;6247148;23;20198;-85
2021/04/22 19:14:10;;;;;;;13.55;4.13;;;10.50;96.00;;;;;;6261173;23;20140;-83
2021/04/22 19:16:56;;;;;;;;;;;;;;;;;;;;;
2021/04/22 19:20:40;;;;;;;9.40;3.65;;;10.30;96.30;;;;;;6256237;22;20186;-85
2021/04/22 19:24:25;;;;;;;6.50;2.85;;;10.10;94.60;;;;;;6050577;23;20184;-84
2021/04/22 19:27:17;;;;;;;12.48;3.20;;;10.20;95.30;;;;;;6027750;23;20152;-86
2021/04/22 19:29:54;;;;;;;9.90;3.83;;;10.10;95.00;;;;;;6028180;23;20172;-84
2021/04/22 19:39:49;;;;;;;7.50;3.75;;;10.30;93.50;;;;;;6141457;23;20189;-86
2021/04/22 19:46:34;;;;;;;14.65;3.15;;;10.30;92.80;;;;;;5968644;24;20161;-84
2021/04/22 19:57:00;;;;;;;7.15;2.92;;;10.10;91.20;;;;;;5995315;24;20159;-87
2021/04/22 20:06:26;;;;;;;4.20;3.05;;;10.30;91.30;;;;;;6002914;23;20210;-83
2021/04/22 20:09:15;;;;;;;4.50;2.50;;;10.40;91.30;;;;;;6066159;23;20155;-84
2021/04/22 20:11:54;;;;;;;6.05;2.55;;;10.40;91.00;;;;;;6105384;23;20174;-83
2021/04/22 20:14:33;;;;;;;7.47;3.05;;;10.40;90.10;;;;;;6215155;23;20174;-84
2021/04/22 20:17:25;;;;;;;6.05;2.47;;;10.40;91.30;;;;;;6251485;23;20152;-84
2021/04/22 20:19:54;;;;;;;5.25;2.58;;;10.30;90.80;;;;;;6216275;23;20687;-84
2021/04/22 20:22:21;;;;;;;6.50;2.25;;;10.20;90.80;;;;;;6230150;22;20160;-84
2021/04/22 20:24:49;;;;;;;2.58;2.08;;;10.20;91.20;;;;;;6224411;23;20537;-84
2021/04/22 20:27:38;;;;;;;9.23;3.05;;;10.20;90.40;;;;;;6224416;23;20159;-84
2021/04/22 20:30:44;;;;;;;8.52;3.80;;;10.20;90.70;;;;;;6225394;23;20164;-85
2021/04/22 20:33:24;;;;;;;9.65;2.78;;;10.20;91.10;;;;;;6201365;23;20598;-85
2021/04/22 20:36:09;;;;;;;5.78;2.92;;;10.10;91.00;;;;;;6254423;23;20148;-85
2021/04/22 20:39:07;;;;;;;;;;;;;;;;;;;;;
2021/04/22 20:41:35;;;;;;;5.63;2.40;;;10.10;91.20;;;;;;6225612;23;20206;-85
2021/04/22 20:44:04;;;;;;;3.25;2.38;;;9.80;91.90;;;;;;6226641;23;20152;-84
2021/04/22 20:46:35;;;;;;;5.65;3.00;;;9.70;92.00;;;;;;6225301;23;20156;-84
2021/04/22 20:49:06;;;;;;;5.03;2.47;;;9.60;92.80;;;;;;6224889;23;20159;-84
2021/04/22 20:51:39;;;;;;;3.55;2.40;;;9.60;93.40;;;;;;6254317;22;20721;-84
2021/04/22 20:54:14;;;;;;;7.43;3.17;;;9.60;93.10;;;;;;6228527;23;20454;-84
2021/04/22 20:56:57;;;;;;;9.25;2.50;;;9.60;93.90;;;;;;6227455;23;20182;-84
2021/04/22 20:59:34;;;;;;;8.35;3.40;;;9.60;94.30;;;;;;6227247;22;20213;-83
2021/04/22 21:02:34;;;;;;;5.75;2.78;;;9.50;94.30;;;;;;6225361;23;20143;-84
2021/04/22 21:05:10;;;;;;;7.30;2.60;;;9.50;95.30;;;;;;6225943;23;20148;-84
2021/04/22 21:07:54;;;;;;;7.60;3.28;;;9.50;95.90;;;;;;6253364;22;20160;-85
2021/04/22 21:14:01;;;;;;;6.32;2.83;;;9.80;95.40;;;;;;6161677;23;20175;-84
2021/04/22 21:16:46;;;;;;;7.30;2.38;;;9.80;95.40;;;;;;6258201;22;20136;-85
2021/04/22 21:19:14;;;;;;;6.50;2.80;;;9.80;96.50;;;;;;6259072;22;20156;-85
2021/04/22 21:21:52;;;;;;;4.07;2.97;;;9.70;96.40;;;;;;6254714;23;20148;-84
2021/04/22 21:24:27;;;;;;;7.32;2.42;;;9.60;96.00;;;;;;6252360;23;20194;-84
2021/04/22 21:27:01;;;;;;;6.35;3.92;;;9.80;96.80;;;;;;6250423;23;20136;-84
2021/04/22 21:29:29;;;;;;;4.35;2.80;;;10.00;95.30;;;;;;6251780;22;20204;-84
2021/04/22 21:31:56;;;;;;;7.05;2.47;;;10.10;95.30;;;;;;6254799;22;20240;-83
2021/04/22 21:34:22;;;;;;;6.25;3.30;;;10.10;94.90;;;;;;6252542;23;20652;-83
2021/04/22 21:36:54;;;;;;;6.10;3.10;;;10.20;95.30;;;;;;6255655;22;20179;-83
2021/04/22 21:39:47;;;;;;;3.92;2.47;;;10.20;94.50;;;;;;6256722;22;20198;-84
2021/04/22 21:42:13;;;;;;;5.38;2.70;;;10.30;95.20;;;;;;6273704;22;20153;-83
2021/04/22 21:44:52;;;;;;;4.82;2.88;;;10.30;94.10;;;;;;6226408;23;20208;-83
2021/04/22 21:47:19;;;;;;;3.03;2.35;;;10.20;94.70;;;;;;6252347;23;20151;-84
2021/04/22 21:49:53;;;;;;;5.47;2.92;;;10.20;95.00;;;;;;6251629;22;20658;-84
2021/04/22 21:52:30;;;;;;;4.30;3.00;;;10.10;95.20;;;;;;6250921;23;20700;-85
2021/04/22 21:55:03;;;;;;;3.13;2.15;;;10.10;94.90;;;;;;6255560;23;20182;-85
2021/04/22 21:57:29;;;;;;;6.22;2.72;;;10.00;95.50;;;;;;6222969;23;20206;-85
2021/04/22 21:59:55;;;;;;;4.83;2.43;;;10.00;95.10;;;;;;6224457;23;20203;-85
2021/04/22 22:02:31;;;;;;;4.80;2.70;;;10.00;96.00;;;;;;6250374;23;20152;-86
2021/04/22 22:04:57;;;;;;;4.90;2.40;;;10.10;95.90;;;;;;6250437;23;20362;-85
2021/04/22 22:07:25;;;;;;;9.23;3.50;;;10.10;95.40;;;;;;6254330;23;20605;-85
2021/04/22 22:09:58;;;;;;;4.03;2.22;;;10.10;95.30;;;;;;6254392;22;20572;-85
2021/04/22 22:12:24;;;;;;;4.18;1.95;;;10.10;95.00;;;;;;6249381;23;20549;-84
2021/04/22 22:14:50;;;;;;;8.30;3.00;;;9.90;96.30;;;;;;6250558;23;20155;-85
2021/04/22 22:17:15;;;;;;;3.37;2.37;;;10.10;95.70;;;;;;6250120;23;20411;-84
2021/04/22 22:19:41;;;;;;;5.23;2.60;;;10.00;96.70;;;;;;6252545;22;20637;-83
2021/04/22 22:22:10;;;;;;;6.00;2.70;;;9.80;97.20;;;;;;6250297;23;20176;-84
2021/04/22 22:24:38;;;;;;;4.60;2.67;;;9.70;97.20;;;;;;6251739;23;20201;-84
2021/04/22 22:27:08;;;;;;;9.90;2.70;;;9.60;99.20;;;;;;6254217;22;20144;-85
2021/04/22 22:29:36;;;;;;;5.10;2.80;;;9.60;98.80;;;;;;6253851;22;20167;-84
2021/04/22 22:32:02;;;;;;;8.90;3.95;;;9.50;98.30;;;;;;6252455;23;20231;-85
2021/04/22 22:34:31;;;;;;;3.33;2.35;;;9.60;99.20;;;;;;6254112;22;20148;-84
2021/04/22 22:36:57;;;;;;;10.63;4.00;;;9.80;99.90;;;;;;6252798;23;20191;-84
2021/04/22 22:39:23;;;;;;;4.63;2.28;;;9.90;98.80;;;;;;6254835;22;20273;-85
2021/04/22 22:41:54;;;;;;;9.40;3.40;;;9.70;99.40;;;;;;6254292;22;20219;-85
2021/04/22 22:44:25;;;;;;;9.15;2.72;;;9.80;99.50;;;;;;6270559;22;20150;-84
2021/04/22 22:46:54;;;;;;;11.60;3.30;;;9.80;99.40;;;;;;6272198;22;20204;-83
2021/04/22 22:49:22;;;;;;;9.00;2.60;;;9.80;99.60;;;;;;6272560;22;20129;-84
2021/04/22 22:51:52;;;;;;;7.63;3.50;;;9.80;99.00;;;;;;6271726;22;20159;-85